sensor_id;sensor_type;location;lat;lon;timestamp;P1;durP1;ratioP1;P2;durP2;ratioP2
73747;SDS011;62056;52.130;5.428;2023-04-01T00:01:51;8.57;;;4.68;;
73747;SDS011;62056;52.130;5.428;2023-04-01T00:04:18;11.02;;;6.20;;
73747;SDS011;62056;52.130;5.428;2023-04-01T00:06:44;16.73;;;8.40;;
73747;SDS011;62056;52.130;5.428;2023-04-01T00:09:11;5.70;;;3.97;;
73747;SDS011;62056;52.130;5.428;2023-04-01T00:11:37;37.28;;;16.02;;
73747;SDS011;62056;52.130;5.428;2023-04-01T00:14:05;17.80;;;8.07;;
73747;SDS011;62056;52.130;5.428;2023-04-01T00:16:32;20.33;;;10.50;;
73747;SDS011;62056;52.130;5.428;2023-04-01T00:18:59;35.10;;;14.15;;
73747;SDS011;62056;52.130;5.428;2023-04-01T00:21:26;22.30;;;8.63;;
73747;SDS011;62056;52.130;5.428;2023-04-01T00:23:52;15.85;;;6.50;;
73747;SDS011;62056;52.130;5.428;2023-04-01T00:26:19;40.22;;;14.10;;
73747;SDS011;62056;52.130;5.428;2023-04-01T00:28:48;28.25;;;11.90;;
73747;SDS011;62056;52.130;5.428;2023-04-01T00:31:15;14.10;;;8.55;;
73747;SDS011;62056;52.130;5.428;2023-04-01T00:33:42;14.13;;;5.60;;
73747;SDS011;62056;52.130;5.428;2023-04-01T00:36:10;12.85;;;5.32;;
73747;SDS011;62056;52.130;5.428;2023-04-01T00:38:38;14.05;;;6.15;;
73747;SDS011;62056;52.130;5.428;2023-04-01T00:41:05;18.27;;;6.80;;
73747;SDS011;62056;52.130;5.428;2023-04-01T00:43:32;15.88;;;5.57;;
73747;SDS011;62056;52.130;5.428;2023-04-01T00:45:59;12.17;;;5.17;;
73747;SDS011;62056;52.130;5.428;2023-04-01T00:48:33;23.88;;;9.40;;
73747;SDS011;62056;52.130;5.428;2023-04-01T00:51:06;7.28;;;5.85;;
73747;SDS011;62056;52.130;5.428;2023-04-01T00:54:03;33.20;;;16.88;;
73747;SDS011;62056;52.130;5.428;2023-04-01T00:56:33;18.70;;;10.60;;
73747;SDS011;62056;52.130;5.428;2023-04-01T00:59:03;17.70;;;9.57;;
73747;SDS011;62056;52.130;5.428;2023-04-01T01:01:34;14.00;;;7.13;;
73747;SDS011;62056;52.130;5.428;2023-04-01T01:04:02;14.73;;;7.00;;
73747;SDS011;62056;52.130;5.428;2023-04-01T01:06:42;19.05;;;6.65;;
73747;SDS011;62056;52.130;5.428;2023-04-01T01:11:58;10.20;;;5.37;;
73747;SDS011;62056;52.130;5.428;2023-04-01T01:17:08;15.80;;;7.82;;
73747;SDS011;62056;52.130;5.428;2023-04-01T01:22:57;15.20;;;6.43;;
73747;SDS011;62056;52.130;5.428;2023-04-01T01:37:35;18.73;;;8.80;;
73747;SDS011;62056;52.130;5.428;2023-04-01T01:40:05;24.10;;;11.70;;
73747;SDS011;62056;52.130;5.428;2023-04-01T01:42:35;14.48;;;7.13;;
73747;SDS011;62056;52.130;5.428;2023-04-01T01:45:06;14.50;;;9.18;;
73747;SDS011;62056;52.130;5.428;2023-04-01T01:47:35;10.02;;;5.80;;
73747;SDS011;62056;52.130;5.428;2023-04-01T01:50:03;11.93;;;7.22;;
73747;SDS011;62056;52.130;5.428;2023-04-01T01:52:31;7.57;;;4.87;;
73747;SDS011;62056;52.130;5.428;2023-04-01T01:54:58;7.72;;;5.50;;
73747;SDS011;62056;52.130;5.428;2023-04-01T01:57:26;7.60;;;6.68;;
73747;SDS011;62056;52.130;5.428;2023-04-01T02:00:05;8.13;;;6.35;;
73747;SDS011;62056;52.130;5.428;2023-04-01T02:02:40;5.88;;;4.93;;
73747;SDS011;62056;52.130;5.428;2023-04-01T02:05:10;14.20;;;8.20;;
73747;SDS011;62056;52.130;5.428;2023-04-01T02:07:46;14.10;;;10.00;;
73747;SDS011;62056;52.130;5.428;2023-04-01T02:10:18;8.23;;;7.38;;
73747;SDS011;62056;52.130;5.428;2023-04-01T02:12:47;8.68;;;6.07;;
73747;SDS011;62056;52.130;5.428;2023-04-01T02:15:15;14.13;;;10.80;;
73747;SDS011;62056;52.130;5.428;2023-04-01T02:17:43;8.57;;;4.37;;
73747;SDS011;62056;52.130;5.428;2023-04-01T02:20:13;4.47;;;3.22;;
73747;SDS011;62056;52.130;5.428;2023-04-01T02:22:48;3.20;;;2.90;;
73747;SDS011;62056;52.130;5.428;2023-04-01T02:25:18;5.00;;;3.30;;
73747;SDS011;62056;52.130;5.428;2023-04-01T02:27:49;5.03;;;3.50;;
73747;SDS011;62056;52.130;5.428;2023-04-01T02:30:16;4.37;;;2.43;;
73747;SDS011;62056;52.130;5.428;2023-04-01T02:32:44;4.30;;;3.78;;
73747;SDS011;62056;52.130;5.428;2023-04-01T02:35:13;4.97;;;2.17;;
73747;SDS011;62056;52.130;5.428;2023-04-01T02:37:42;2.63;;;1.65;;
73747;SDS011;62056;52.130;5.428;2023-04-01T02:40:13;5.13;;;4.63;;
73747;SDS011;62056;52.130;5.428;2023-04-01T02:42:41;3.73;;;3.43;;
73747;SDS011;62056;52.130;5.428;2023-04-01T02:45:07;3.95;;;2.10;;
73747;SDS011;62056;52.130;5.428;2023-04-01T02:47:35;3.90;;;2.28;;
73747;SDS011;62056;52.130;5.428;2023-04-01T02:50:01;3.13;;;2.10;;
73747;SDS011;62056;52.130;5.428;2023-04-01T02:52:28;4.93;;;2.55;;
73747;SDS011;62056;52.130;5.428;2023-04-01T02:54:56;3.70;;;1.73;;
73747;SDS011;62056;52.130;5.428;2023-04-01T02:57:23;3.33;;;1.48;;
73747;SDS011;62056;52.130;5.428;2023-04-01T02:59:51;4.25;;;3.15;;
73747;SDS011;62056;52.130;5.428;2023-04-01T03:02:17;3.60;;;2.28;;
73747;SDS011;62056;52.130;5.428;2023-04-01T03:04:44;3.33;;;2.00;;
73747;SDS011;62056;52.130;5.428;2023-04-01T03:07:11;2.33;;;1.77;;
73747;SDS011;62056;52.130;5.428;2023-04-01T03:09:37;3.30;;;2.03;;
73747;SDS011;62056;52.130;5.428;2023-04-01T03:12:05;3.10;;;1.45;;
73747;SDS011;62056;52.130;5.428;2023-04-01T03:14:32;2.22;;;1.08;;
73747;SDS011;62056;52.130;5.428;2023-04-01T03:16:59;4.57;;;1.60;;
73747;SDS011;62056;52.130;5.428;2023-04-01T03:19:26;4.33;;;1.47;;
73747;SDS011;62056;52.130;5.428;2023-04-01T03:21:53;3.22;;;1.75;;
73747;SDS011;62056;52.130;5.428;2023-04-01T03:24:20;2.10;;;0.88;;
73747;SDS011;62056;52.130;5.428;2023-04-01T03:26:47;1.52;;;1.10;;
73747;SDS011;62056;52.130;5.428;2023-04-01T03:29:14;2.13;;;1.33;;
73747;SDS011;62056;52.130;5.428;2023-04-01T03:31:42;2.10;;;1.43;;
73747;SDS011;62056;52.130;5.428;2023-04-01T03:34:09;1.73;;;0.93;;
73747;SDS011;62056;52.130;5.428;2023-04-01T03:36:36;1.50;;;0.70;;
73747;SDS011;62056;52.130;5.428;2023-04-01T03:39:02;2.00;;;1.48;;
73747;SDS011;62056;52.130;5.428;2023-04-01T03:41:29;3.65;;;1.95;;
73747;SDS011;62056;52.130;5.428;2023-04-01T03:43:57;2.30;;;1.47;;
73747;SDS011;62056;52.130;5.428;2023-04-01T03:46:23;2.85;;;1.80;;
73747;SDS011;62056;52.130;5.428;2023-04-01T03:48:50;2.72;;;1.65;;
73747;SDS011;62056;52.130;5.428;2023-04-01T03:51:17;4.18;;;1.77;;
73747;SDS011;62056;52.130;5.428;2023-04-01T03:53:44;2.47;;;1.65;;
73747;SDS011;62056;52.130;5.428;2023-04-01T03:56:11;4.63;;;2.10;;
73747;SDS011;62056;52.130;5.428;2023-04-01T03:58:37;5.82;;;2.88;;
73747;SDS011;62056;52.130;5.428;2023-04-01T04:01:18;5.82;;;3.58;;
73747;SDS011;62056;52.130;5.428;2023-04-01T04:03:49;5.05;;;3.13;;
73747;SDS011;62056;52.130;5.428;2023-04-01T04:06:18;4.05;;;3.65;;
73747;SDS011;62056;52.130;5.428;2023-04-01T04:08:45;6.87;;;4.50;;
73747;SDS011;62056;52.130;5.428;2023-04-01T04:11:13;6.38;;;3.72;;
73747;SDS011;62056;52.130;5.428;2023-04-01T04:13:41;5.70;;;4.18;;
73747;SDS011;62056;52.130;5.428;2023-04-01T04:16:07;8.52;;;4.63;;
73747;SDS011;62056;52.130;5.428;2023-04-01T04:18:36;5.10;;;4.60;;
73747;SDS011;62056;52.130;5.428;2023-04-01T04:21:03;5.73;;;4.07;;
73747;SDS011;62056;52.130;5.428;2023-04-01T04:23:30;6.65;;;4.85;;
73747;SDS011;62056;52.130;5.428;2023-04-01T04:26:01;4.70;;;3.70;;
73747;SDS011;62056;52.130;5.428;2023-04-01T04:28:32;7.68;;;4.13;;
73747;SDS011;62056;52.130;5.428;2023-04-01T04:30:58;5.13;;;3.38;;
73747;SDS011;62056;52.130;5.428;2023-04-01T04:33:26;5.87;;;4.00;;
73747;SDS011;62056;52.130;5.428;2023-04-01T04:35:57;3.40;;;3.10;;
73747;SDS011;62056;52.130;5.428;2023-04-01T04:38:24;4.00;;;3.30;;
73747;SDS011;62056;52.130;5.428;2023-04-01T04:40:51;5.10;;;3.60;;
73747;SDS011;62056;52.130;5.428;2023-04-01T04:43:18;4.05;;;3.13;;
73747;SDS011;62056;52.130;5.428;2023-04-01T04:45:45;4.30;;;3.87;;
73747;SDS011;62056;52.130;5.428;2023-04-01T04:48:13;4.85;;;3.53;;
73747;SDS011;62056;52.130;5.428;2023-04-01T04:50:47;3.67;;;3.30;;
73747;SDS011;62056;52.130;5.428;2023-04-01T04:53:16;4.32;;;3.17;;
73747;SDS011;62056;52.130;5.428;2023-04-01T04:55:47;6.03;;;3.55;;
73747;SDS011;62056;52.130;5.428;2023-04-01T04:58:15;3.97;;;3.17;;
73747;SDS011;62056;52.130;5.428;2023-04-01T05:00:43;5.25;;;3.33;;
73747;SDS011;62056;52.130;5.428;2023-04-01T05:03:10;3.75;;;2.60;;
73747;SDS011;62056;52.130;5.428;2023-04-01T05:05:37;4.30;;;3.30;;
73747;SDS011;62056;52.130;5.428;2023-04-01T05:08:04;4.43;;;2.75;;
73747;SDS011;62056;52.130;5.428;2023-04-01T05:10:31;4.47;;;2.53;;
73747;SDS011;62056;52.130;5.428;2023-04-01T05:12:58;3.90;;;2.80;;
73747;SDS011;62056;52.130;5.428;2023-04-01T05:15:24;4.03;;;3.03;;
73747;SDS011;62056;52.130;5.428;2023-04-01T05:17:51;3.58;;;2.78;;
73747;SDS011;62056;52.130;5.428;2023-04-01T05:20:18;3.85;;;2.35;;
73747;SDS011;62056;52.130;5.428;2023-04-01T05:22:44;3.10;;;2.60;;
73747;SDS011;62056;52.130;5.428;2023-04-01T05:25:11;3.88;;;2.92;;
73747;SDS011;62056;52.130;5.428;2023-04-01T05:27:38;4.45;;;2.85;;
73747;SDS011;62056;52.130;5.428;2023-04-01T05:30:05;4.90;;;3.90;;
73747;SDS011;62056;52.130;5.428;2023-04-01T05:32:32;4.18;;;3.55;;
73747;SDS011;62056;52.130;5.428;2023-04-01T05:34:59;5.07;;;3.73;;
73747;SDS011;62056;52.130;5.428;2023-04-01T05:37:25;8.18;;;4.03;;
73747;SDS011;62056;52.130;5.428;2023-04-01T05:39:52;4.10;;;3.42;;
73747;SDS011;62056;52.130;5.428;2023-04-01T05:42:18;4.10;;;3.35;;
73747;SDS011;62056;52.130;5.428;2023-04-01T05:44:50;3.40;;;3.03;;
73747;SDS011;62056;52.130;5.428;2023-04-01T05:47:17;3.77;;;3.37;;
73747;SDS011;62056;52.130;5.428;2023-04-01T05:49:44;3.88;;;3.30;;
73747;SDS011;62056;52.130;5.428;2023-04-01T05:55:49;3.03;;;2.20;;
73747;SDS011;62056;52.130;5.428;2023-04-01T05:58:15;2.72;;;2.33;;
73747;SDS011;62056;52.130;5.428;2023-04-01T06:00:42;2.50;;;2.10;;
73747;SDS011;62056;52.130;5.428;2023-04-01T06:03:36;2.55;;;1.90;;
73747;SDS011;62056;52.130;5.428;2023-04-01T06:06:04;1.83;;;1.52;;
73747;SDS011;62056;52.130;5.428;2023-04-01T06:08:39;2.63;;;1.98;;
73747;SDS011;62056;52.130;5.428;2023-04-01T06:11:22;2.30;;;1.73;;
73747;SDS011;62056;52.130;5.428;2023-04-01T06:17:08;2.90;;;2.22;;
73747;SDS011;62056;52.130;5.428;2023-04-01T06:20:00;3.13;;;1.67;;
73747;SDS011;62056;52.130;5.428;2023-04-01T06:28:20;2.10;;;1.60;;
73747;SDS011;62056;52.130;5.428;2023-04-01T06:33:52;2.97;;;2.13;;
73747;SDS011;62056;52.130;5.428;2023-04-01T06:36:34;2.72;;;2.22;;
73747;SDS011;62056;52.130;5.428;2023-04-01T06:39:28;2.63;;;1.80;;
73747;SDS011;62056;52.130;5.428;2023-04-01T06:49:44;2.15;;;1.88;;
73747;SDS011;62056;52.130;5.428;2023-04-01T06:52:23;2.35;;;1.98;;
73747;SDS011;62056;52.130;5.428;2023-04-01T06:55:02;2.50;;;2.10;;
73747;SDS011;62056;52.130;5.428;2023-04-01T06:57:38;2.20;;;1.52;;
73747;SDS011;62056;52.130;5.428;2023-04-01T07:00:15;1.98;;;1.30;;
73747;SDS011;62056;52.130;5.428;2023-04-01T07:05:45;1.30;;;0.90;;
73747;SDS011;62056;52.130;5.428;2023-04-01T07:08:13;2.73;;;1.17;;
73747;SDS011;62056;52.130;5.428;2023-04-01T07:13:36;1.40;;;0.75;;
73747;SDS011;62056;52.130;5.428;2023-04-01T07:19:08;2.35;;;1.50;;
73747;SDS011;62056;52.130;5.428;2023-04-01T07:21:44;1.97;;;1.20;;
73747;SDS011;62056;52.130;5.428;2023-04-01T07:24:23;2.15;;;1.67;;
73747;SDS011;62056;52.130;5.428;2023-04-01T07:26:54;1.80;;;1.45;;
73747;SDS011;62056;52.130;5.428;2023-04-01T07:29:22;1.95;;;1.77;;
73747;SDS011;62056;52.130;5.428;2023-04-01T07:37:29;2.20;;;1.98;;
73747;SDS011;62056;52.130;5.428;2023-04-01T07:40:25;2.90;;;2.40;;
73747;SDS011;62056;52.130;5.428;2023-04-01T07:43:14;2.38;;;2.00;;
73747;SDS011;62056;52.130;5.428;2023-04-01T07:48:22;2.73;;;2.37;;
73747;SDS011;62056;52.130;5.428;2023-04-01T07:53:36;2.95;;;2.53;;
73747;SDS011;62056;52.130;5.428;2023-04-01T08:15:33;2.67;;;2.33;;
73747;SDS011;62056;52.130;5.428;2023-04-01T08:23:28;3.30;;;2.97;;
73747;SDS011;62056;52.130;5.428;2023-04-01T08:26:04;2.08;;;1.88;;
73747;SDS011;62056;52.130;5.428;2023-04-01T08:28:39;4.17;;;2.47;;
73747;SDS011;62056;52.130;5.428;2023-04-01T08:34:04;4.07;;;2.30;;
73747;SDS011;62056;52.130;5.428;2023-04-01T08:36:41;3.00;;;2.63;;
73747;SDS011;62056;52.130;5.428;2023-04-01T08:39:15;3.20;;;2.90;;
73747;SDS011;62056;52.130;5.428;2023-04-01T08:47:38;3.42;;;3.10;;
73747;SDS011;62056;52.130;5.428;2023-04-01T08:53:03;3.72;;;2.95;;
73747;SDS011;62056;52.130;5.428;2023-04-01T08:55:51;4.80;;;2.87;;
73747;SDS011;62056;52.130;5.428;2023-04-01T08:58:51;3.88;;;2.97;;
73747;SDS011;62056;52.130;5.428;2023-04-01T09:04:32;2.95;;;2.60;;
73747;SDS011;62056;52.130;5.428;2023-04-01T09:10:18;2.90;;;2.70;;
73747;SDS011;62056;52.130;5.428;2023-04-01T09:12:51;3.35;;;3.05;;
73747;SDS011;62056;52.130;5.428;2023-04-01T09:35:37;2.15;;;1.88;;
73747;SDS011;62056;52.130;5.428;2023-04-01T09:38:19;3.30;;;2.20;;
73747;SDS011;62056;52.130;5.428;2023-04-01T09:49:43;3.83;;;3.45;;
73747;SDS011;62056;52.130;5.428;2023-04-01T10:03:23;3.58;;;3.28;;
73747;SDS011;62056;52.130;5.428;2023-04-01T10:12:23;5.07;;;3.33;;
73747;SDS011;62056;52.130;5.428;2023-04-01T10:18:01;3.78;;;2.92;;
73747;SDS011;62056;52.130;5.428;2023-04-01T10:28:15;2.95;;;2.42;;
73747;SDS011;62056;52.130;5.428;2023-04-01T10:31:15;2.70;;;2.50;;
73747;SDS011;62056;52.130;5.428;2023-04-01T10:36:52;3.08;;;2.78;;
73747;SDS011;62056;52.130;5.428;2023-04-01T10:39:32;3.58;;;3.20;;
73747;SDS011;62056;52.130;5.428;2023-04-01T11:02:29;3.73;;;2.80;;
73747;SDS011;62056;52.130;5.428;2023-04-01T11:10:51;1.77;;;1.45;;
73747;SDS011;62056;52.130;5.428;2023-04-01T11:17:15;1.23;;;0.80;;
73747;SDS011;62056;52.130;5.428;2023-04-01T11:26:20;1.90;;;0.82;;
73747;SDS011;62056;52.130;5.428;2023-04-01T11:37:44;1.10;;;0.60;;
73747;SDS011;62056;52.130;5.428;2023-04-01T11:40:39;1.10;;;0.50;;
73747;SDS011;62056;52.130;5.428;2023-04-01T11:46:16;1.30;;;0.40;;
73747;SDS011;62056;52.130;5.428;2023-04-01T11:54:32;0.70;;;0.32;;
73747;SDS011;62056;52.130;5.428;2023-04-01T11:57:21;0.75;;;0.50;;
73747;SDS011;62056;52.130;5.428;2023-04-01T12:05:19;0.68;;;0.40;;
73747;SDS011;62056;52.130;5.428;2023-04-01T12:10:38;1.52;;;0.60;;
73747;SDS011;62056;52.130;5.428;2023-04-01T12:18:43;1.38;;;1.25;;
73747;SDS011;62056;52.130;5.428;2023-04-01T12:24:27;2.40;;;2.20;;
73747;SDS011;62056;52.130;5.428;2023-04-01T12:29:54;3.58;;;3.28;;
73747;SDS011;62056;52.130;5.428;2023-04-01T12:32:39;3.28;;;2.60;;
73747;SDS011;62056;52.130;5.428;2023-04-01T12:35:22;3.63;;;2.90;;
73747;SDS011;62056;52.130;5.428;2023-04-01T12:38:03;4.70;;;4.30;;
73747;SDS011;62056;52.130;5.428;2023-04-01T13:01:13;6.15;;;4.95;;
73747;SDS011;62056;52.130;5.428;2023-04-01T13:04:13;8.00;;;5.18;;
73747;SDS011;62056;52.130;5.428;2023-04-01T13:10:05;4.43;;;3.53;;
73747;SDS011;62056;52.130;5.428;2023-04-01T13:18:33;5.18;;;4.15;;
73747;SDS011;62056;52.130;5.428;2023-04-01T13:23:55;5.07;;;2.83;;
73747;SDS011;62056;52.130;5.428;2023-04-01T13:26:27;3.30;;;3.00;;
73747;SDS011;62056;52.130;5.428;2023-04-01T13:29:08;2.17;;;1.98;;
73747;SDS011;62056;52.130;5.428;2023-04-01T13:31:45;3.80;;;3.10;;
73747;SDS011;62056;52.130;5.428;2023-04-01T13:34:40;2.17;;;1.95;;
73747;SDS011;62056;52.130;5.428;2023-04-01T13:45:58;1.92;;;1.20;;
73747;SDS011;62056;52.130;5.428;2023-04-01T13:49:08;2.45;;;2.00;;
73747;SDS011;62056;52.130;5.428;2023-04-01T13:52:12;3.70;;;1.30;;
73747;SDS011;62056;52.130;5.428;2023-04-01T13:55:01;2.47;;;2.28;;
73747;SDS011;62056;52.130;5.428;2023-04-01T14:00:30;1.77;;;1.45;;
73747;SDS011;62056;52.130;5.428;2023-04-01T14:03:11;1.65;;;1.10;;
73747;SDS011;62056;52.130;5.428;2023-04-01T14:11:38;2.78;;;2.45;;
73747;SDS011;62056;52.130;5.428;2023-04-01T14:14:22;2.75;;;2.35;;
73747;SDS011;62056;52.130;5.428;2023-04-01T14:22:59;2.70;;;2.42;;
73747;SDS011;62056;52.130;5.428;2023-04-01T14:28:49;4.53;;;2.50;;
73747;SDS011;62056;52.130;5.428;2023-04-01T14:31:23;2.05;;;1.67;;
73747;SDS011;62056;52.130;5.428;2023-04-01T14:34:05;1.70;;;1.60;;
73747;SDS011;62056;52.130;5.428;2023-04-01T14:50:41;2.42;;;2.08;;
73747;SDS011;62056;52.130;5.428;2023-04-01T14:53:26;3.10;;;2.00;;
73747;SDS011;62056;52.130;5.428;2023-04-01T14:55:59;1.90;;;1.65;;
73747;SDS011;62056;52.130;5.428;2023-04-01T15:01:23;2.20;;;1.93;;
73747;SDS011;62056;52.130;5.428;2023-04-01T15:06:50;2.22;;;1.80;;
73747;SDS011;62056;52.130;5.428;2023-04-01T15:19:57;1.95;;;1.67;;
73747;SDS011;62056;52.130;5.428;2023-04-01T15:22:42;2.85;;;2.28;;
73747;SDS011;62056;52.130;5.428;2023-04-01T15:27:51;1.83;;;1.40;;
73747;SDS011;62056;52.130;5.428;2023-04-01T15:30:35;1.70;;;1.60;;
73747;SDS011;62056;52.130;5.428;2023-04-01T15:41:48;1.23;;;1.10;;
73747;SDS011;62056;52.130;5.428;2023-04-01T15:47:28;2.25;;;1.48;;
73747;SDS011;62056;52.130;5.428;2023-04-01T15:52:49;1.25;;;1.10;;
73747;SDS011;62056;52.130;5.428;2023-04-01T15:55:31;2.13;;;1.43;;
73747;SDS011;62056;52.130;5.428;2023-04-01T15:58:17;1.50;;;1.40;;
73747;SDS011;62056;52.130;5.428;2023-04-01T16:17:25;1.70;;;1.60;;
73747;SDS011;62056;52.130;5.428;2023-04-01T16:20:25;1.50;;;1.40;;
73747;SDS011;62056;52.130;5.428;2023-04-01T16:31:47;1.65;;;1.35;;
73747;SDS011;62056;52.130;5.428;2023-04-01T16:37:10;1.40;;;1.30;;
73747;SDS011;62056;52.130;5.428;2023-04-01T16:40:02;2.17;;;1.98;;
73747;SDS011;62056;52.130;5.428;2023-04-01T16:51:30;2.03;;;1.90;;
73747;SDS011;62056;52.130;5.428;2023-04-01T16:54:04;1.80;;;1.70;;
73747;SDS011;62056;52.130;5.428;2023-04-01T16:56:41;1.50;;;1.27;;
73747;SDS011;62056;52.130;5.428;2023-04-01T16:59:22;1.45;;;1.20;;
73747;SDS011;62056;52.130;5.428;2023-04-01T17:02:01;1.98;;;1.75;;
73747;SDS011;62056;52.130;5.428;2023-04-01T17:04:33;1.47;;;1.37;;
73747;SDS011;62056;52.130;5.428;2023-04-01T17:07:10;1.70;;;0.70;;
73747;SDS011;62056;52.130;5.428;2023-04-01T17:09:50;1.80;;;1.55;;
73747;SDS011;62056;52.130;5.428;2023-04-01T17:12:25;1.42;;;1.33;;
73747;SDS011;62056;52.130;5.428;2023-04-01T17:20:43;1.00;;;0.82;;
73747;SDS011;62056;52.130;5.428;2023-04-01T17:23:30;1.70;;;1.60;;
73747;SDS011;62056;52.130;5.428;2023-04-01T17:36:32;1.50;;;1.40;;
73747;SDS011;62056;52.130;5.428;2023-04-01T17:42:04;1.45;;;1.35;;
73747;SDS011;62056;52.130;5.428;2023-04-01T17:44:44;1.70;;;1.00;;
73747;SDS011;62056;52.130;5.428;2023-04-01T17:55:55;1.55;;;1.23;;
73747;SDS011;62056;52.130;5.428;2023-04-01T18:09:15;1.65;;;1.55;;
73747;SDS011;62056;52.130;5.428;2023-04-01T18:23:55;1.50;;;1.40;;
73747;SDS011;62056;52.130;5.428;2023-04-01T18:26:39;1.83;;;1.07;;
73747;SDS011;62056;52.130;5.428;2023-04-01T18:29:15;1.70;;;1.50;;
73747;SDS011;62056;52.130;5.428;2023-04-01T18:31:55;1.33;;;0.85;;
73747;SDS011;62056;52.130;5.428;2023-04-01T18:37:43;2.20;;;2.00;;
73747;SDS011;62056;52.130;5.428;2023-04-01T18:40:30;1.90;;;1.63;;
73747;SDS011;62056;52.130;5.428;2023-04-01T18:45:46;2.83;;;2.00;;
73747;SDS011;62056;52.130;5.428;2023-04-01T18:50:55;1.58;;;1.48;;
73747;SDS011;62056;52.130;5.428;2023-04-01T18:56:11;1.90;;;1.70;;
73747;SDS011;62056;52.130;5.428;2023-04-01T19:04:47;1.58;;;1.48;;
73747;SDS011;62056;52.130;5.428;2023-04-01T19:10:13;1.08;;;0.82;;
73747;SDS011;62056;52.130;5.428;2023-04-01T19:20:41;1.00;;;0.80;;
73747;SDS011;62056;52.130;5.428;2023-04-01T19:23:23;1.55;;;1.10;;
73747;SDS011;62056;52.130;5.428;2023-04-01T19:25:55;1.70;;;1.60;;
73747;SDS011;62056;52.130;5.428;2023-04-01T19:28:28;1.60;;;1.30;;
73747;SDS011;62056;52.130;5.428;2023-04-01T19:45:23;1.65;;;1.52;;
73747;SDS011;62056;52.130;5.428;2023-04-01T19:50:48;2.00;;;1.80;;
73747;SDS011;62056;52.130;5.428;2023-04-01T19:53:29;4.22;;;1.52;;
73747;SDS011;62056;52.130;5.428;2023-04-01T19:56:13;3.35;;;1.95;;
73747;SDS011;62056;52.130;5.428;2023-04-01T19:58:51;1.45;;;1.35;;
73747;SDS011;62056;52.130;5.428;2023-04-01T20:01:42;2.40;;;2.13;;
73747;SDS011;62056;52.130;5.428;2023-04-01T20:04:17;2.22;;;2.03;;
73747;SDS011;62056;52.130;5.428;2023-04-01T20:06:55;1.83;;;1.73;;
73747;SDS011;62056;52.130;5.428;2023-04-01T20:14:50;3.43;;;2.90;;
73747;SDS011;62056;52.130;5.428;2023-04-01T20:17:21;3.65;;;2.83;;
73747;SDS011;62056;52.130;5.428;2023-04-01T20:19:53;2.63;;;2.42;;
73747;SDS011;62056;52.130;5.428;2023-04-01T20:22:38;3.60;;;3.22;;
73747;SDS011;62056;52.130;5.428;2023-04-01T20:27:57;2.37;;;2.17;;
73747;SDS011;62056;52.130;5.428;2023-04-01T20:33:20;2.97;;;2.78;;
73747;SDS011;62056;52.130;5.428;2023-04-01T20:36:04;3.13;;;2.92;;
73747;SDS011;62056;52.130;5.428;2023-04-01T20:47:59;3.65;;;3.30;;
73747;SDS011;62056;52.130;5.428;2023-04-01T20:53:39;3.70;;;3.40;;
73747;SDS011;62056;52.130;5.428;2023-04-01T21:04:22;2.95;;;2.75;;
73747;SDS011;62056;52.130;5.428;2023-04-01T21:10:20;3.60;;;3.30;;
73747;SDS011;62056;52.130;5.428;2023-04-01T21:15:56;4.10;;;3.40;;
73747;SDS011;62056;52.130;5.428;2023-04-01T21:18:37;4.35;;;2.83;;
73747;SDS011;62056;52.130;5.428;2023-04-01T21:38:06;4.63;;;2.23;;
73747;SDS011;62056;52.130;5.428;2023-04-01T21:58:01;2.97;;;2.13;;
73747;SDS011;62056;52.130;5.428;2023-04-01T22:01:06;4.05;;;2.65;;
73747;SDS011;62056;52.130;5.428;2023-04-01T22:03:56;4.10;;;3.75;;
73747;SDS011;62056;52.130;5.428;2023-04-01T22:06:51;3.93;;;3.03;;
73747;SDS011;62056;52.130;5.428;2023-04-01T22:09:29;3.10;;;2.70;;
73747;SDS011;62056;52.130;5.428;2023-04-01T22:17:38;5.80;;;4.13;;
73747;SDS011;62056;52.130;5.428;2023-04-01T22:20:27;5.47;;;3.80;;
73747;SDS011;62056;52.130;5.428;2023-04-01T22:23:32;3.88;;;3.58;;
73747;SDS011;62056;52.130;5.428;2023-04-01T22:26:14;3.10;;;2.80;;
73747;SDS011;62056;52.130;5.428;2023-04-01T22:31:30;4.15;;;3.35;;
73747;SDS011;62056;52.130;5.428;2023-04-01T22:34:11;4.17;;;3.77;;
73747;SDS011;62056;52.130;5.428;2023-04-01T22:36:56;3.88;;;3.47;;
73747;SDS011;62056;52.130;5.428;2023-04-01T22:39:39;4.18;;;3.78;;
73747;SDS011;62056;52.130;5.428;2023-04-01T22:44:52;3.25;;;2.95;;
73747;SDS011;62056;52.130;5.428;2023-04-01T22:50:44;3.05;;;2.75;;
73747;SDS011;62056;52.130;5.428;2023-04-01T22:53:17;3.92;;;3.53;;
73747;SDS011;62056;52.130;5.428;2023-04-01T22:55:57;6.05;;;3.92;;
73747;SDS011;62056;52.130;5.428;2023-04-01T22:58:30;5.85;;;3.65;;
73747;SDS011;62056;52.130;5.428;2023-04-01T23:01:05;4.27;;;3.80;;
73747;SDS011;62056;52.130;5.428;2023-04-01T23:03:44;5.70;;;4.32;;
73747;SDS011;62056;52.130;5.428;2023-04-01T23:06:17;5.05;;;4.53;;
73747;SDS011;62056;52.130;5.428;2023-04-01T23:11:45;6.80;;;5.28;;
73747;SDS011;62056;52.130;5.428;2023-04-01T23:19:46;4.80;;;4.30;;
73747;SDS011;62056;52.130;5.428;2023-04-01T23:22:31;9.85;;;5.18;;
73747;SDS011;62056;52.130;5.428;2023-04-01T23:25:00;8.63;;;3.95;;
73747;SDS011;62056;52.130;5.428;2023-04-01T23:27:39;10.37;;;4.83;;
73747;SDS011;62056;52.130;5.428;2023-04-01T23:36:02;8.32;;;5.07;;
73747;SDS011;62056;52.130;5.428;2023-04-01T23:38:38;6.93;;;4.60;;
73747;SDS011;62056;52.130;5.428;2023-04-01T23:41:09;6.83;;;4.53;;
73747;SDS011;62056;52.130;5.428;2023-04-01T23:43:48;7.05;;;4.85;;
73747;SDS011;62056;52.130;5.428;2023-04-01T23:46:26;7.82;;;4.65;;
73747;SDS011;62056;52.130;5.428;2023-04-01T23:48:55;7.57;;;6.28;;
73747;SDS011;62056;52.130;5.428;2023-04-01T23:51:23;7.15;;;4.75;;
73747;SDS011;62056;52.130;5.428;2023-04-01T23:54:01;8.73;;;5.63;;
73747;SDS011;62056;52.130;5.428;2023-04-01T23:56:34;11.00;;;4.88;;
73747;SDS011;62056;52.130;5.428;2023-04-01T23:59:09;8.82;;;5.40;;
